Terminal Aerodrome Forecast
Issued by NWS Wakefield, VA

Home | Current Version | Previous Version | Text Only | Print | Product List | Glossary On
Versions: 1 2 3 4 5 6 7 8 9 10 11 12 13 14 15 16 17 18 19 20 21 22 23 24 25 26
733
FTUS41 KAKQ 282328
TAFSBY
TAF
KSBY 282328Z 2900/2924 23008KT P6SM SKC
     FM290900 21008KT P6SM BKN060
     FM291100 22008KT P6SM SCT006 BKN015
     FM291500 24010KT P6SM SCT040 SCT250=

USA.gov is the U.S. government's official web portal to all federal, state and local government web resources and services.